PILOTS ONLINE: 161    ATC ONLINE: 33

CYVR

Vancouver International Airport

Location

IATA YVR
City Vancouver
Country  Canada
Latitude 49° 11' 38" N
Longitude 123° 11' 2" W
Elevation 14 ft
Type Large Airport

Map

Weather

METAR
2014/10/23 04:16
CYVR 230416Z 22014KT 150V220 4SM +RA BR SCT006 BKN011 OVC020TCU 12/11 A2951 RMK SF3SC3TCU2 PRESRR SLP992 DENSITY ALT 100FT
TAF
2014/10/23 03:41
TAF CYVR 230238Z 2303/2406 08010KT P6SM -SHRA SCT005 SCT015 OVC030 
      TEMPO 2303/2306 2SM SHRA BR BKN005 OVC012 
      BECMG 2304/2306 16010KT 
     FM230600 16010KT P6SM -SHRA SCT008 OVC040 
      TEMPO 2306/2312 3SM SHRA BR SCT004 BKN008 
     FM231200 10010KT P6SM SCT040 BKN120 
      TEMPO 2312/2315 3SM BR SCT008 BKN030 
     FM231500 12010KT P6SM SCT008 BKN040 
      TEMPO 2315/2324 2SM -SHRA BR SCT005 OVC008 
      RMK NXT FCST BY 230600Z

Runways

08L/26R 9940 ft / 200 ft
08R/26L 11500 ft / 200 ft
12/30 7300 ft / 200 ft
XX/26A 3500 ft / 75 ft

Outbound flights

Callsign Flying to Pilot ATD/STD ETA Aircraft
FDX4597  KSFO - San Francisco
United States
Daniel Roe
1275892
03:35 05:01 MD11

Inbound flights

Callsign Flying from Pilot ATD ETA Aircraft